Time;durP1;ratioP1;P1;durP2;ratioP2;P2;SDS_P1;SDS_P2;PMS_P1;PMS_P2;Temp;Humidity;BMP_temperature;BMP_pressure;BME280_temperature;BME280_humidity;BME280_pressure;Samples;Min_cycle;Max_cycle;Signal;HPM_P1;HPM_P2
2021/03/15 00:00:32;;;;;;;0.20;0.20;;;;;;;6.21;100.00;99714.72;5012943;28;20180;-78
2021/03/15 00:03:37;;;;;;;0.13;0.13;;;;;;;6.20;100.00;99715.94;5012952;28;20522;-78
2021/03/15 00:06:41;;;;;;;0.13;0.13;;;;;;;6.21;100.00;99726.56;5012369;28;20053;-78
2021/03/15 00:09:45;;;;;;;0.10;0.10;;;;;;;6.20;100.00;99710.41;5012015;28;20064;-77
2021/03/15 00:12:49;;;;;;;0.10;0.10;;;;;;;6.10;100.00;99704.06;5012190;28;20065;-78
2021/03/15 00:15:56;;;;;;;2.20;0.38;;;;;;;6.02;100.00;99700.00;5012584;28;20057;-77
2021/03/15 00:19:00;;;;;;;0.20;0.20;;;;;;;5.95;100.00;99703.78;5012505;28;20068;-78
2021/03/15 00:22:03;;;;;;;0.10;0.10;;;;;;;5.93;100.00;99720.03;5007478;28;20068;-77
2021/03/15 00:25:08;;;;;;;0.20;0.20;;;;;;;5.93;100.00;99719.28;5012471;28;20061;-78
2021/03/15 00:28:12;;;;;;;0.30;0.30;;;;;;;5.96;100.00;99721.91;5003630;28;20058;-78
2021/03/15 00:31:15;;;;;;;0.35;0.35;;;;;;;5.97;100.00;99734.50;4992356;28;20057;-78
2021/03/15 00:34:18;;;;;;;0.20;0.20;;;;;;;6.01;100.00;99746.22;4991933;28;20062;-78
2021/03/15 00:37:22;;;;;;;0.30;0.30;;;;;;;6.02;100.00;99744.97;4972436;28;20062;-78
2021/03/15 00:40:26;;;;;;;0.35;0.35;;;;;;;5.99;100.00;99734.06;4973296;28;20062;-77
2021/03/15 00:43:29;;;;;;;0.20;0.20;;;;;;;5.96;100.00;99740.47;4975163;28;20053;-78
2021/03/15 00:46:33;;;;;;;0.25;0.25;;;;;;;5.92;100.00;99739.81;4991556;28;20065;-78
2021/03/15 00:49:37;;;;;;;0.30;0.30;;;;;;;5.92;100.00;99751.66;4992207;28;20057;-78
2021/03/15 00:52:41;;;;;;;0.75;0.75;;;;;;;5.89;100.00;99730.44;4992574;28;20073;-79
2021/03/15 00:55:44;;;;;;;0.20;0.20;;;;;;;5.91;100.00;99741.06;4991295;28;20065;-78
2021/03/15 00:58:48;;;;;;;0.32;0.28;;;;;;;5.96;100.00;99749.53;4992551;28;20057;-77
2021/03/15 01:01:51;;;;;;;0.20;0.20;;;;;;;5.97;100.00;99742.81;5014637;28;20073;-78
2021/03/15 01:04:55;;;;;;;0.15;0.15;;;;;;;6.00;100.00;99738.34;4949968;28;20062;-78
2021/03/15 01:07:59;;;;;;;0.20;0.20;;;;;;;6.00;100.00;99747.41;4952028;28;20085;-78
2021/03/15 01:11:02;;;;;;;0.10;0.10;;;;;;;6.00;100.00;99736.38;4958780;28;20089;-79
2021/03/15 01:14:07;;;;;;;1.75;0.70;;;;;;;6.01;100.00;99742.66;4950527;28;20053;-78
2021/03/15 01:17:12;;;;;;;0.40;0.40;;;;;;;5.99;100.00;99753.41;4959771;28;21043;-79
2021/03/15 01:20:16;;;;;;;0.20;0.20;;;;;;;5.99;100.00;99745.13;4953200;28;21025;-79
2021/03/15 01:23:20;;;;;;;0.17;0.17;;;;;;;5.99;100.00;99754.19;4958965;28;20057;-79
2021/03/15 01:26:25;;;;;;;0.10;0.10;;;;;;;5.97;100.00;99759.38;4951830;28;21102;-78
2021/03/15 01:29:29;;;;;;;0.20;0.20;;;;;;;5.97;100.00;99764.91;4949934;28;20340;-79
2021/03/15 01:32:33;;;;;;;0.15;0.15;;;;;;;5.98;100.00;99776.72;4950851;28;20058;-78
2021/03/15 01:35:37;;;;;;;1.73;0.60;;;;;;;5.95;100.00;99785.94;4953750;28;20093;-78
2021/03/15 01:38:41;;;;;;;0.10;0.10;;;;;;;5.89;100.00;99780.16;4950645;28;20061;-78
2021/03/15 01:41:45;;;;;;;0.30;0.30;;;;;;;5.84;100.00;99771.69;4951140;28;20124;-77
2021/03/15 01:44:49;;;;;;;0.20;0.20;;;;;;;5.79;100.00;99781.28;4951458;28;20049;-78
2021/03/15 01:47:53;;;;;;;0.20;0.20;;;;;;;5.74;100.00;99762.50;4951879;28;20058;-77
2021/03/15 01:50:57;;;;;;;0.10;0.10;;;;;;;5.71;100.00;99768.91;4950347;28;20053;-77
2021/03/15 01:54:01;;;;;;;0.20;0.20;;;;;;;5.71;100.00;99757.88;4949834;28;20073;-78
2021/03/15 01:57:06;;;;;;;0.30;0.30;;;;;;;5.73;100.00;99772.00;4949832;28;21044;-78
2021/03/15 02:00:10;;;;;;;0.28;0.28;;;;;;;5.74;100.00;99754.19;4949335;28;20065;-77
2021/03/15 02:03:14;;;;;;;0.30;0.30;;;;;;;5.74;100.00;99756.97;4948330;28;20054;-78
2021/03/15 02:06:17;;;;;;;0.20;0.20;;;;;;;5.74;100.00;99758.97;4948176;28;20705;-76
2021/03/15 02:09:21;;;;;;;0.20;0.20;;;;;;;5.72;100.00;99759.41;4949642;28;20105;-78
2021/03/15 02:12:28;;;;;;;0.17;0.17;;;;;;;5.76;100.00;99760.06;4950358;28;20189;-78
2021/03/15 02:15:57;;;;;;;0.28;0.28;;;;;;;5.79;100.00;99764.69;4945851;28;20061;-77
2021/03/15 02:19:04;;;;;;;0.10;0.10;;;;;;;5.84;100.00;99772.47;4946348;28;20371;-76
2021/03/15 02:22:29;;;;;;;0.10;0.10;;;;;;;5.84;100.00;99774.44;4946721;28;20081;-77
2021/03/15 02:26:15;;;;;;;0.20;0.20;;;;;;;5.80;100.00;99771.78;4954052;28;20179;-78
2021/03/15 02:29:43;;;;;;;0.28;0.28;;;;;;;5.82;100.00;99774.09;4949522;28;20065;-77
2021/03/15 02:32:50;;;;;;;0.32;0.25;;;;;;;5.80;100.00;99769.03;4948532;28;20720;-77
2021/03/15 02:35:57;;;;;;;0.20;0.20;;;;;;;5.78;100.00;99778.97;4948734;28;20061;-77
2021/03/15 02:39:03;;;;;;;0.10;0.10;;;;;;;5.78;100.00;99779.72;4958943;28;20053;-77
2021/03/15 02:42:14;;;;;;;0.35;0.35;;;;;;;5.74;100.00;99783.84;4952680;28;20065;-77
2021/03/15 02:45:19;;;;;;;0.20;0.20;;;;;;;5.74;100.00;99779.06;4950773;28;20742;-77
2021/03/15 02:48:25;;;;;;;0.15;0.15;;;;;;;5.75;100.00;99775.09;4949411;28;20215;-77
2021/03/15 02:51:32;;;;;;;0.38;0.38;;;;;;;5.76;100.00;99782.16;4950704;28;20081;-77
2021/03/15 02:54:38;;;;;;;0.10;0.10;;;;;;;5.79;100.00;99789.56;4950301;28;20058;-76
2021/03/15 02:57:44;;;;;;;0.20;0.20;;;;;;;5.80;100.00;99793.88;4949543;28;20761;-77
2021/03/15 03:00:50;;;;;;;0.10;0.10;;;;;;;5.81;100.00;99800.94;4957599;28;20369;-77
2021/03/15 03:03:55;;;;;;;0.50;0.50;;;;;;;5.78;100.00;99795.53;4957828;28;20057;-78
2021/03/15 03:07:00;;;;;;;0.20;0.20;;;;;;;5.78;100.00;99801.06;4987381;28;20069;-77
2021/03/15 03:10:05;;;;;;;0.10;0.10;;;;;;;5.76;100.00;99801.50;5010238;28;20057;-77
2021/03/15 03:13:11;;;;;;;0.28;0.28;;;;;;;5.74;100.00;99806.69;5010140;28;20060;-78
2021/03/15 03:16:14;;;;;;;0.13;0.13;;;;;;;5.67;100.00;99804.19;5010041;28;20080;-79
2021/03/15 03:19:19;;;;;;;0.10;0.03;;;;;;;5.60;100.00;99815.44;5009132;28;20528;-78
2021/03/15 03:22:24;;;;;;;0.20;0.20;;;;;;;5.57;100.00;99819.09;5010193;28;20069;-79
2021/03/15 03:25:28;;;;;;;0.10;0.10;;;;;;;5.59;100.00;99816.66;5032041;28;20053;-78
2021/03/15 03:28:33;;;;;;;0.40;0.40;;;;;;;5.60;100.00;99820.19;5010115;28;20796;-78
2021/03/15 03:31:41;;;;;;;0.17;0.17;;;;;;;5.58;100.00;99815.13;5010018;28;20543;-78
2021/03/15 03:34:44;;;;;;;9.85;2.85;;;;;;;5.61;100.00;99821.75;5031560;28;20407;-78
2021/03/15 03:37:48;;;;;;;0.20;0.20;;;;;;;5.58;100.00;99831.69;5009410;28;20069;-78
2021/03/15 03:40:52;;;;;;;0.10;0.10;;;;;;;5.55;100.00;99835.31;5008972;28;20645;-78
2021/03/15 03:43:55;;;;;;;0.20;0.20;;;;;;;5.58;100.00;99837.22;5008959;28;20065;-78
2021/03/15 03:46:59;;;;;;;0.20;0.20;;;;;;;5.58;100.00;99831.69;5010128;28;20530;-78
2021/03/15 03:50:06;;;;;;;0.22;0.22;;;;;;;5.60;100.00;99845.06;5013133;28;20503;-77
2021/03/15 03:53:15;;;;;;;0.13;0.13;;;;;;;5.60;100.00;99845.84;5000537;28;20060;-78
2021/03/15 03:56:29;;;;;;;0.20;0.20;;;;;;;5.65;100.00;99841.75;5009308;28;20073;-79
2021/03/15 03:59:35;;;;;;;0.28;0.28;;;;;;;5.60;100.00;99856.09;5013184;28;20065;-79
2021/03/15 04:02:47;;;;;;;0.25;0.25;;;;;;;5.58;100.00;99853.78;5013261;28;20065;-79
2021/03/15 04:05:55;;;;;;;0.20;0.20;;;;;;;5.59;100.00;99855.31;5012764;28;20068;-78
2021/03/15 04:09:03;;;;;;;0.20;0.20;;;;;;;5.59;100.00;99852.56;5012951;28;20061;-78
2021/03/15 04:12:10;;;;;;;0.35;0.35;;;;;;;5.58;100.00;99856.56;5008209;28;20615;-79
2021/03/15 04:15:16;;;;;;;0.20;0.20;;;;;;;5.57;100.00;99863.28;5012642;28;20076;-78
2021/03/15 04:18:27;;;;;;;0.10;0.10;;;;;;;5.63;100.00;99867.03;5012211;28;20057;-78
2021/03/15 04:21:32;;;;;;;0.20;0.20;;;;;;;5.66;100.00;99870.91;5012646;28;20068;-79
2021/03/15 04:24:39;;;;;;;0.20;0.20;;;;;;;5.63;100.00;99875.31;5012503;28;20412;-78
2021/03/15 04:27:43;;;;;;;0.10;0.10;;;;;;;5.66;100.00;99882.72;5004784;28;20072;-79
2021/03/15 04:30:48;;;;;;;0.20;0.20;;;;;;;5.64;100.00;99884.38;5012169;28;20061;-79
2021/03/15 04:33:52;;;;;;;0.10;0.10;;;;;;;5.63;100.00;99886.38;5012252;28;20411;-78
2021/03/15 04:36:58;;;;;;;0.10;0.10;;;;;;;5.64;100.00;99890.69;4992591;28;20523;-78
2021/03/15 04:40:01;;;;;;;0.47;0.47;;;;;;;5.62;100.00;99900.63;4992287;28;20065;-78
2021/03/15 04:43:08;;;;;;;0.10;0.10;;;;;;;5.58;100.00;99902.72;4992350;28;20066;-78
2021/03/15 04:46:12;;;;;;;0.20;0.20;;;;;;;5.58;100.00;99909.03;4992803;28;20420;-79
2021/03/15 04:49:17;;;;;;;0.10;0.10;;;;;;;5.60;100.00;99917.66;4991916;28;20061;-78
2021/03/15 04:52:21;;;;;;;0.10;0.10;;;;;;;5.59;100.00;99910.56;4991673;28;20669;-78
2021/03/15 04:55:26;;;;;;;0.25;0.25;;;;;;;5.60;100.00;99939.75;4992032;28;20061;-78
2021/03/15 04:58:32;;;;;;;0.30;0.30;;;;;;;5.63;100.00;99940.88;4992187;28;20057;-78
2021/03/15 05:01:39;;;;;;;0.10;0.10;;;;;;;5.59;100.00;99937.44;4992281;28;20077;-78
2021/03/15 05:04:43;;;;;;;0.10;0.10;;;;;;;5.57;100.00;99935.09;4992309;28;20065;-78
2021/03/15 05:07:49;;;;;;;0.10;0.10;;;;;;;5.60;100.00;99934.22;4991982;28;20441;-78
2021/03/15 05:10:53;;;;;;;0.10;0.10;;;;;;;5.59;100.00;99937.44;4991613;28;20065;-77
2021/03/15 05:14:01;;;;;;;0.40;0.40;;;;;;;5.57;100.00;99942.59;4992023;28;20425;-79
2021/03/15 05:17:04;;;;;;;0.20;0.20;;;;;;;5.57;100.00;99935.09;4991878;28;20065;-78
2021/03/15 05:20:16;;;;;;;0.30;0.30;;;;;;;5.57;100.00;99950.88;4991900;28;20108;-78
2021/03/15 05:23:22;;;;;;;0.25;0.25;;;;;;;5.64;100.00;99958.97;4991325;28;20061;-78
2021/03/15 05:26:27;;;;;;;0.20;0.20;;;;;;;5.62;100.00;99958.63;4992112;28;20062;-78
2021/03/15 05:29:35;;;;;;;0.10;0.10;;;;;;;5.59;100.00;99965.81;4991363;28;20065;-79
2021/03/15 05:32:41;;;;;;;0.10;0.10;;;;;;;5.58;100.00;99958.75;4991014;28;20065;-78
2021/03/15 05:35:46;;;;;;;0.10;0.10;;;;;;;5.61;100.00;99971.66;5001860;28;20061;-78
2021/03/15 05:38:50;;;;;;;0.15;0.15;;;;;;;5.63;100.00;99977.53;5011407;28;20116;-78
2021/03/15 05:42:24;;;;;;;0.20;0.20;;;;;;;5.65;100.00;99964.06;5010907;28;20527;-77
2021/03/15 05:45:52;;;;;;;0.20;0.20;;;;;;;5.65;100.00;99974.34;5010518;28;20081;-79
2021/03/15 05:48:56;;;;;;;0.30;0.30;;;;;;;5.64;100.00;99992.13;5011148;28;20065;-78
2021/03/15 05:52:05;;;;;;;0.20;0.20;;;;;;;5.64;100.00;99992.91;5011232;28;20061;-78
2021/03/15 05:55:30;;;;;;;0.30;0.30;;;;;;;5.65;100.00;100002.72;5010882;28;20085;-78
2021/03/15 05:58:46;;;;;;;0.25;0.25;;;;;;;5.65;100.00;100008.25;5008379;28;20080;-78
2021/03/15 06:01:59;;;;;;;0.10;0.10;;;;;;;5.65;100.00;100016.53;5008390;28;20052;-79
2021/03/15 06:05:25;;;;;;;0.10;0.10;;;;;;;5.67;100.00;100027.19;4989895;28;20065;-78
2021/03/15 06:08:39;;;;;;;0.10;0.10;;;;;;;5.67;100.00;100032.69;4990450;28;20066;-79
2021/03/15 06:11:49;;;;;;;0.17;0.17;;;;;;;5.57;100.00;100037.31;5007742;28;20057;-78
2021/03/15 06:14:54;;;;;;;0.10;0.10;;;;;;;5.58;100.00;100033.34;5010456;28;20064;-78
2021/03/15 06:18:01;;;;;;;0.10;0.10;;;;;;;5.56;100.00;100037.75;5010616;28;20060;-78
2021/03/15 06:21:09;;;;;;;0.20;0.20;;;;;;;5.55;100.00;100041.72;5009478;28;20057;-79
2021/03/15 06:24:13;;;;;;;0.20;0.20;;;;;;;5.53;100.00;100033.88;5009508;28;20060;-78
2021/03/15 06:27:17;;;;;;;0.22;0.22;;;;;;;5.52;100.00;100048.13;5010436;28;20068;-78
2021/03/15 06:30:22;;;;;;;0.20;0.20;;;;;;;5.54;100.00;100053.97;5010462;28;20069;-78
2021/03/15 06:33:26;;;;;;;0.15;0.15;;;;;;;5.58;100.00;100058.19;5009347;28;20423;-78
2021/03/15 06:36:32;;;;;;;0.13;0.13;;;;;;;5.60;100.00;100068.81;5010529;28;20061;-78
2021/03/15 06:39:37;;;;;;;0.20;0.20;;;;;;;5.57;100.00;100075.97;5010295;28;20064;-78
2021/03/15 06:42:41;;;;;;;0.30;0.30;;;;;;;5.55;100.00;100075.63;5010128;28;20065;-78
2021/03/15 06:45:53;;;;;;;0.10;0.10;;;;;;;5.55;100.00;100089.44;5010390;28;20061;-78
2021/03/15 06:48:57;;;;;;;0.57;0.52;;;;;;;5.53;100.00;100094.63;5010412;28;20049;-78
2021/03/15 06:52:10;;;;;;;0.30;0.30;;;;;;;5.51;100.00;100091.53;5009163;28;20168;-78
2021/03/15 06:55:14;;;;;;;0.20;0.20;;;;;;;5.52;100.00;100101.38;4989999;28;20065;-79
2021/03/15 06:58:17;;;;;;;0.25;0.25;;;;;;;5.54;100.00;100112.78;5008126;28;20665;-79
2021/03/15 07:01:21;;;;;;;0.20;0.20;;;;;;;5.57;100.00;100106.34;5008916;28;20428;-79
2021/03/15 07:04:25;;;;;;;0.10;0.10;;;;;;;5.58;100.00;100110.69;5009065;28;20061;-78
2021/03/15 07:07:29;;;;;;;0.10;0.10;;;;;;;5.63;100.00;100125.97;5009960;28;20049;-78
2021/03/15 07:10:33;;;;;;;0.22;0.22;;;;;;;5.63;100.00;100135.00;5010894;28;20069;-78
2021/03/15 07:13:37;;;;;;;0.20;0.20;;;;;;;5.63;100.00;100135.00;5009458;28;20073;-79
2021/03/15 07:16:55;;;;;;;0.10;0.10;;;;;;;5.66;100.00;100136.13;5009871;28;20077;-78
2021/03/15 07:19:58;;;;;;;0.10;0.10;;;;;;;5.64;100.00;100153.13;5011789;28;20057;-79
2021/03/15 07:23:02;;;;;;;0.10;0.10;;;;;;;5.63;100.00;100153.59;5011108;28;20423;-78
2021/03/15 07:26:13;;;;;;;0.10;0.10;;;;;;;5.63;100.00;100154.34;5018071;28;20076;-79
2021/03/15 07:29:18;;;;;;;0.30;0.30;;;;;;;5.63;100.00;100154.34;5013401;28;20101;-78
2021/03/15 07:32:38;;;;;;;0.17;0.17;;;;;;;5.67;100.00;100165.31;5012665;28;20069;-78
2021/03/15 07:35:43;;;;;;;0.10;0.10;;;;;;;5.69;100.00;100171.97;5013200;28;20065;-78
2021/03/15 07:38:47;;;;;;;0.10;0.10;;;;;;;5.73;100.00;100167.13;5012971;28;20060;-79
2021/03/15 07:41:53;;;;;;;0.17;0.17;;;;;;;5.76;100.00;100173.75;5012219;28;20053;-78
2021/03/15 07:44:57;;;;;;;0.30;0.30;;;;;;;5.77;100.00;100176.09;5012965;28;20065;-78
2021/03/15 07:48:21;;;;;;;0.17;0.17;;;;;;;5.80;100.00;100178.00;5012538;28;20065;-79
2021/03/15 07:51:32;;;;;;;0.10;0.10;;;;;;;5.79;100.00;100173.66;5011730;28;20061;-79
2021/03/15 07:54:40;;;;;;;0.20;0.20;;;;;;;5.82;100.00;100167.28;5012985;28;20060;-79
2021/03/15 07:57:44;;;;;;;0.20;0.20;;;;;;;5.87;100.00;100177.81;5012473;28;20061;-78
2021/03/15 08:00:47;;;;;;;0.10;0.10;;;;;;;5.93;100.00;100176.06;5013194;28;20069;-78
2021/03/15 08:03:52;;;;;;;0.10;0.10;;;;;;;5.94;100.00;100196.19;5011693;28;20060;-78
2021/03/15 08:06:56;;;;;;;0.17;0.17;;;;;;;5.98;100.00;100191.34;5012655;28;20056;-79
2021/03/15 08:10:00;;;;;;;0.10;0.10;;;;;;;6.02;100.00;100208.63;5012151;28;20065;-79
2021/03/15 08:13:04;;;;;;;0.20;0.20;;;;;;;6.04;100.00;100200.69;5012568;28;20065;-79
2021/03/15 08:16:08;;;;;;;0.15;0.15;;;;;;;6.07;100.00;100206.09;5012660;28;20077;-79
2021/03/15 08:19:18;;;;;;;0.20;0.20;;;;;;;6.15;100.00;100211.44;5012739;28;20065;-79
2021/03/15 08:22:27;;;;;;;0.13;0.13;;;;;;;6.25;100.00;100219.44;5012039;28;20056;-81
2021/03/15 08:25:31;;;;;;;0.10;0.10;;;;;;;6.43;100.00;100216.19;5012565;28;20077;-80
2021/03/15 08:28:38;;;;;;;0.10;0.10;;;;;;;6.53;100.00;100209.56;5012561;28;20052;-79
2021/03/15 08:31:46;;;;;;;0.15;0.15;;;;;;;6.62;100.00;100223.53;5034433;28;20065;-77
2021/03/15 08:34:50;;;;;;;0.10;0.10;;;;;;;6.64;100.00;100227.41;5011756;28;20061;-80
2021/03/15 08:38:04;;;;;;;0.10;0.10;;;;;;;6.70;100.00;100235.94;5012069;28;20068;-80
2021/03/15 08:41:08;;;;;;;0.10;0.10;;;;;;;6.78;100.00;100226.97;5007442;28;20077;-79
2021/03/15 08:44:41;;;;;;;0.20;0.20;;;;;;;6.99;100.00;100233.09;5011070;28;20068;-79
2021/03/15 08:47:52;;;;;;;0.10;0.10;;;;;;;7.09;100.00;100241.06;5011869;28;20069;-79
2021/03/15 08:50:58;;;;;;;0.10;0.10;;;;;;;7.20;100.00;100244.31;5011311;28;20061;-79
2021/03/15 08:54:07;;;;;;;0.10;0.10;;;;;;;7.40;100.00;100258.72;5011934;28;20061;-79
2021/03/15 08:57:29;;;;;;;0.10;0.10;;;;;;;7.37;100.00;100242.97;5012030;28;20065;-79
2021/03/15 09:00:35;;;;;;;0.20;0.20;;;;;;;7.27;100.00;100271.00;5011053;28;20069;-79
2021/03/15 09:03:58;;;;;;;0.20;0.20;;;;;;;7.14;100.00;100276.53;5011758;28;20073;-79
2021/03/15 09:07:04;;;;;;;0.30;0.30;;;;;;;7.16;100.00;100281.63;5011917;28;20065;-78
2021/03/15 09:10:22;;;;;;;0.10;0.10;;;;;;;7.16;100.00;100290.72;5012020;28;20080;-79
2021/03/15 09:13:29;;;;;;;0.13;0.13;;;;;;;7.29;100.00;100296.25;5010078;28;20112;-79
2021/03/15 09:16:33;;;;;;;0.10;0.10;;;;;;;7.51;100.00;100299.94;5011882;28;20061;-79
2021/03/15 09:19:43;;;;;;;0.10;0.10;;;;;;;7.55;100.00;100297.81;5011480;28;20122;-79
2021/03/15 09:22:46;;;;;;;0.13;0.10;;;;;;;7.50;100.00;100295.59;5011252;28;20057;-79
2021/03/15 09:25:49;;;;;;;0.10;0.10;;;;;;;7.42;100.00;100314.44;5011620;28;20064;-79
2021/03/15 09:28:54;;;;;;;0.10;0.10;;;;;;;7.33;100.00;100306.03;5012082;28;20290;-79
2021/03/15 09:31:59;;;;;;;0.10;0.10;;;;;;;7.28;100.00;100311.31;5015172;28;20542;-78
2021/03/15 09:35:23;;;;;;;0.17;0.17;;;;;;;7.30;100.00;100320.75;5010783;28;20061;-79
2021/03/15 09:38:27;;;;;;;0.10;0.10;;;;;;;7.32;100.00;100328.63;5010844;28;20415;-79
2021/03/15 09:41:30;;;;;;;7.82;0.85;;;;;;;7.30;100.00;100323.50;5011416;28;20519;-79
2021/03/15 09:44:34;;;;;;;0.10;0.10;;;;;;;7.26;100.00;100322.84;5010581;28;20068;-78
2021/03/15 09:47:37;;;;;;;0.10;0.10;;;;;;;7.27;100.00;100329.97;5011162;28;20073;-78
2021/03/15 09:50:46;;;;;;;0.20;0.20;;;;;;;7.47;100.00;100327.72;5011072;28;20061;-78
2021/03/15 09:53:49;;;;;;;0.10;0.10;;;;;;;7.76;100.00;100326.84;5010933;28;20061;-78
2021/03/15 09:57:01;;;;;;;0.20;0.20;;;;;;;7.93;100.00;100331.03;5011075;28;20061;-79
2021/03/15 10:00:07;;;;;;;0.10;0.10;;;;;;;8.05;100.00;100344.13;5010861;28;20065;-78
2021/03/15 10:03:23;;;;;;;0.10;0.10;;;;;;;8.16;100.00;100330.69;5010734;28;20073;-79
2021/03/15 10:06:27;;;;;;;0.10;0.10;;;;;;;8.22;100.00;100337.22;5009336;28;20061;-79
2021/03/15 10:09:32;;;;;;;0.10;0.10;;;;;;;8.26;100.00;100337.88;5010994;28;20423;-78
2021/03/15 10:12:35;;;;;;;0.10;0.10;;;;;;;8.30;100.00;100344.09;5010941;28;20073;-79
2021/03/15 10:15:39;;;;;;;0.10;0.10;;;;;;;8.29;100.00;100348.09;5010657;28;20411;-79
2021/03/15 10:18:49;;;;;;;0.10;0.10;;;;;;;8.24;100.00;100351.41;5010351;28;20061;-78
2021/03/15 10:21:54;;;;;;;0.10;0.10;;;;;;;8.17;100.00;100349.66;5010672;28;20065;-77
2021/03/15 10:24:57;;;;;;;0.10;0.10;;;;;;;8.19;100.00;100354.75;5010723;28;20420;-76
2021/03/15 10:28:01;;;;;;;0.10;0.10;;;;;;;8.33;100.00;100340.44;5009824;28;20061;-76
2021/03/15 10:31:08;;;;;;;0.15;0.15;;;;;;;8.57;100.00;100358.22;5010532;28;20060;-76
2021/03/15 10:34:12;;;;;;;0.10;0.10;;;;;;;8.61;100.00;100370.00;5010596;28;20065;-76
2021/03/15 10:37:15;;;;;;;9.95;0.47;;;;;;;8.69;100.00;100376.84;5014392;28;20061;-75
2021/03/15 10:40:21;;;;;;;0.10;0.10;;;;;;;8.75;100.00;100363.16;5009596;28;20057;-77
2021/03/15 10:43:25;;;;;;;0.10;0.10;;;;;;;8.79;100.00;100359.00;5009531;28;20065;-75
2021/03/15 10:46:30;;;;;;;0.10;0.10;;;;;;;8.77;100.00;100367.03;5010527;28;20060;-76
2021/03/15 10:49:34;;;;;;;0.10;0.10;;;;;;;8.74;100.00;100376.28;5009915;28;20057;-76
2021/03/15 10:52:38;;;;;;;0.10;0.10;;;;;;;8.90;100.00;100375.31;5010164;28;20069;-75
2021/03/15 10:55:42;;;;;;;0.10;0.10;;;;;;;9.05;100.00;100371.56;5009866;28;20065;-75
2021/03/15 10:58:47;;;;;;;0.10;0.10;;;;;;;9.03;100.00;100374.00;5036047;28;20068;-75
2021/03/15 11:01:53;;;;;;;0.40;0.20;;;;;;;9.07;100.00;100385.00;5013222;28;20069;-76
2021/03/15 11:04:58;;;;;;;0.10;0.10;;;;;;;9.07;100.00;100390.56;5013543;28;20065;-76
2021/03/15 11:08:02;;;;;;;0.17;0.17;;;;;;;9.04;100.00;100397.03;5014129;28;20764;-76
2021/03/15 11:11:16;;;;;;;0.10;0.10;;;;;;;9.10;100.00;100397.97;5013972;28;20064;-75
2021/03/15 11:14:20;;;;;;;0.25;0.25;;;;;;;9.00;100.00;100402.72;5012492;28;20076;-75
2021/03/15 11:17:23;;;;;;;0.10;0.10;;;;;;;8.94;100.00;100410.03;5013734;28;20082;-75
2021/03/15 11:20:52;;;;;;;0.10;0.10;;;;;;;8.90;100.00;100398.28;5013117;28;20060;-75
2021/03/15 11:23:56;;;;;;;0.10;0.10;;;;;;;8.98;100.00;100409.94;5013259;28;20407;-75
2021/03/15 11:27:03;;;;;;;0.30;0.30;;;;;;;9.12;100.00;100404.63;5012562;28;20069;-76
2021/03/15 11:30:22;;;;;;;0.10;0.10;;;;;;;9.14;100.00;100407.75;5017635;28;20443;-76
2021/03/15 11:33:28;;;;;;;0.10;0.10;;;;;;;9.07;100.00;100410.78;5017921;28;20060;-77
2021/03/15 11:36:32;;;;;;;0.10;0.10;;;;;;;9.00;100.00;100413.81;5013462;28;20400;-76
2021/03/15 11:39:47;;;;;;;0.73;0.13;;;;;;;9.12;100.00;100409.41;5013951;28;20065;-77
2021/03/15 11:42:55;;;;;;;0.10;0.10;;;;;;;9.08;100.00;100420.66;5012823;28;20065;-75
2021/03/15 11:45:59;;;;;;;0.10;0.10;;;;;;;9.09;100.00;100422.22;5012782;28;20459;-75
2021/03/15 11:49:03;;;;;;;0.25;0.10;;;;;;;9.21;100.00;100422.59;5013271;28;20056;-75
2021/03/15 11:52:07;;;;;;;0.10;0.10;;;;;;;9.21;100.00;100428.16;5012283;28;20060;-75
2021/03/15 11:55:12;;;;;;;0.10;0.10;;;;;;;9.18;100.00;100427.84;5012655;28;20065;-75
2021/03/15 11:58:16;;;;;;;0.10;0.10;;;;;;;9.16;100.00;100430.28;5012890;28;20060;-75
2021/03/15 12:01:20;;;;;;;0.10;0.10;;;;;;;9.12;100.00;100426.88;5009314;28;20076;-76
2021/03/15 12:04:23;;;;;;;0.10;0.10;;;;;;;9.22;100.00;100440.84;5011921;28;20068;-76
2021/03/15 12:07:27;;;;;;;0.10;0.03;;;;;;;9.66;100.00;100436.78;5012279;28;20053;-76
2021/03/15 12:10:32;;;;;;;0.10;0.10;;;;;;;9.98;100.00;100433.56;5012949;28;20064;-76
2021/03/15 12:13:36;;;;;;;0.10;0.10;;;;;;;10.15;100.00;100439.69;5012313;28;20076;-76
2021/03/15 12:16:39;;;;;;;0.10;0.10;;;;;;;10.07;100.00;100447.50;5012632;28;20514;-78
2021/03/15 12:19:43;;;;;;;0.10;0.10;;;;;;;9.90;100.00;100446.19;5012546;28;20073;-75
2021/03/15 12:22:48;;;;;;;0.10;0.10;;;;;;;9.95;100.00;100448.38;5012059;28;20208;-76
2021/03/15 12:25:52;;;;;;;0.10;0.10;;;;;;;10.01;100.00;100445.75;5012634;28;20057;-76
2021/03/15 12:28:55;;;;;;;0.10;0.10;;;;;;;9.98;100.00;100458.63;5011496;28;20053;-76
2021/03/15 12:31:59;;;;;;;0.10;0.10;;;;;;;9.89;100.00;100453.78;5012104;28;20065;-75
2021/03/15 12:35:04;;;;;;;0.10;0.10;;;;;;;9.64;100.00;100451.16;5012448;28;20527;-75
2021/03/15 12:38:08;;;;;;;0.10;0.10;;;;;;;9.66;100.00;100465.38;5012160;28;20060;-75
2021/03/15 12:41:11;;;;;;;0.10;0.00;;;;;;;9.88;100.00;100465.34;5014158;28;20118;-74
2021/03/15 12:44:15;;;;;;;0.10;0.10;;;;;;;10.08;100.00;100462.97;5012948;28;20068;-75
2021/03/15 12:47:18;;;;;;;0.10;0.00;;;;;;;10.33;100.00;100462.03;5011577;28;20061;-77
2021/03/15 12:50:22;;;;;;;0.08;0.00;;;;;;;10.66;100.00;100463.81;5012179;28;20049;-75
2021/03/15 12:53:26;;;;;;;0.10;0.10;;;;;;;10.69;100.00;100462.13;5016345;28;20060;-75
2021/03/15 12:56:30;;;;;;;0.10;0.10;;;;;;;10.77;100.00;100459.78;5012414;28;20073;-75
2021/03/15 12:59:33;;;;;;;0.10;0.10;;;;;;;10.74;100.00;100466.31;5011706;28;20077;-75
2021/03/15 13:02:37;;;;;;;0.10;0.10;;;;;;;10.74;100.00;100474.66;5011696;28;20068;-75
2021/03/15 13:05:40;;;;;;;0.10;0.10;;;;;;;10.72;100.00;100474.34;5011853;28;20069;-75
2021/03/15 13:08:46;;;;;;;0.10;0.00;;;;;;;10.65;100.00;100472.63;5011247;28;20056;-75
2021/03/15 13:11:49;;;;;;;0.10;0.00;;;;;;;10.57;100.00;100483.28;5010402;28;20538;-75
2021/03/15 13:14:53;;;;;;;0.10;0.10;;;;;;;10.43;100.00;100489.44;5010769;28;20060;-75
2021/03/15 13:17:57;;;;;;;0.10;0.10;;;;;;;10.23;100.00;100491.81;5011394;28;20077;-75
2021/03/15 13:21:03;;;;;;;0.10;0.00;;;;;;;9.97;100.00;100492.44;5010490;28;20064;-75
2021/03/15 13:24:10;;;;;;;0.10;0.10;;;;;;;9.94;100.00;100496.91;5007470;28;20056;-75
2021/03/15 13:27:14;;;;;;;0.10;0.10;;;;;;;9.93;100.00;100496.16;5011324;28;20077;-75
2021/03/15 13:30:18;;;;;;;0.10;0.10;;;;;;;9.97;100.00;100479.31;5011353;28;20077;-75
2021/03/15 13:33:22;;;;;;;0.15;0.15;;;;;;;9.92;100.00;100483.44;5010506;28;20061;-75
2021/03/15 13:36:26;;;;;;;0.10;0.00;;;;;;;9.93;100.00;100498.16;5011300;28;20069;-75
2021/03/15 13:39:29;;;;;;;0.10;0.10;;;;;;;10.16;100.00;100485.75;5011264;28;20060;-75
2021/03/15 13:42:33;;;;;;;0.10;0.10;;;;;;;10.38;100.00;100503.16;5011488;28;20475;-75
2021/03/15 13:45:38;;;;;;;0.10;0.10;;;;;;;10.49;100.00;100493.16;5011492;28;20507;-75
2021/03/15 13:48:41;;;;;;;0.10;0.10;;;;;;;10.65;100.00;100490.09;5011836;28;20424;-75
2021/03/15 13:51:45;;;;;;;0.10;0.10;;;;;;;10.75;100.00;100504.06;5010850;28;20530;-75
2021/03/15 13:54:49;;;;;;;0.10;0.10;;;;;;;10.86;100.00;100504.38;5010142;28;20057;-76
2021/03/15 13:57:53;;;;;;;0.10;0.00;;;;;;;10.89;100.00;100514.63;5010701;28;20053;-75
2021/03/15 14:00:56;;;;;;;0.10;0.10;;;;;;;10.61;100.00;100511.00;5010804;28;20077;-75
2021/03/15 14:04:00;;;;;;;0.10;0.10;;;;;;;10.42;100.00;100517.72;5010226;28;20392;-74
2021/03/15 14:07:03;;;;;;;0.10;0.00;;;;;;;10.46;100.00;100524.69;5010806;28;20065;-75
2021/03/15 14:10:07;;;;;;;0.10;0.10;;;;;;;10.57;100.00;100516.69;5010511;28;20056;-75
2021/03/15 14:13:11;;;;;;;0.10;0.10;;;;;;;10.84;100.00;100523.59;5010562;28;20523;-76
2021/03/15 14:16:14;;;;;;;0.10;0.10;;;;;;;10.98;100.00;100517.44;5010760;28;20535;-77
2021/03/15 14:19:18;;;;;;;0.10;0.10;;;;;;;11.01;100.00;100522.06;5010111;28;20065;-75
2021/03/15 14:22:22;;;;;;;0.10;0.00;;;;;;;11.05;100.00;100528.25;5010749;28;20527;-75
2021/03/15 14:25:25;;;;;;;0.10;0.10;;;;;;;11.10;100.00;100538.81;5010596;28;20069;-75
2021/03/15 14:28:29;;;;;;;0.10;0.10;;;;;;;10.82;100.00;100537.97;5010260;28;20116;-75